Time;durP1;ratioP1;P1;durP2;ratioP2;P2;SDS_P1;SDS_P2;PMS_P1;PMS_P2;Temp;Humidity;BMP_temperature;BMP_pressure;BME280_temperature;BME280_humidity;BME280_pressure;Samples;Min_cycle;Max_cycle;Signal;HPM_P1;HPM_P2
2022/04/03 00:00:55;;;;;;;10.70;4.75;;;1.60;66.00;;;;;;5031942;28;20733;-74
2022/04/03 00:03:22;;;;;;;12.07;5.10;;;1.60;66.20;;;;;;5026121;28;20130;-78
2022/04/03 00:05:47;;;;;;;13.60;5.90;;;1.50;66.40;;;;;;5026002;28;20740;-76
2022/04/03 00:08:13;;;;;;;18.17;7.60;;;1.50;66.60;;;;;;5021242;28;20033;-78
2022/04/03 00:10:40;;;;;;;30.00;10.40;;;1.40;66.80;;;;;;5021185;28;20120;-77
2022/04/03 00:13:06;;;;;;;31.80;10.10;;;1.40;66.90;;;;;;5006602;28;20284;-76
2022/04/03 00:15:33;;;;;;;31.60;11.98;;;1.40;66.70;;;;;;5035308;28;20041;-78
2022/04/03 00:17:59;;;;;;;31.67;12.15;;;1.40;66.90;;;;;;5026099;28;20422;-80
2022/04/03 00:20:25;;;;;;;26.75;10.43;;;1.40;67.20;;;;;;5036486;28;20033;-75
2022/04/03 00:22:52;;;;;;;21.30;9.82;;;1.30;67.30;;;;;;5030077;28;20052;-76
2022/04/03 00:25:19;;;;;;;24.75;10.88;;;1.30;67.40;;;;;;5022234;28;20033;-80
2022/04/03 00:27:45;;;;;;;33.92;14.40;;;1.20;67.70;;;;;;5021844;28;20041;-77
2022/04/03 00:30:12;;;;;;;23.85;10.35;;;1.20;68.10;;;;;;5005549;28;20053;-77
2022/04/03 00:32:37;;;;;;;17.33;7.53;;;1.20;68.00;;;;;;5011667;28;20045;-79
2022/04/03 00:35:04;;;;;;;10.95;4.85;;;1.20;68.20;;;;;;5005999;28;20026;-76
2022/04/03 00:37:30;;;;;;;9.15;3.97;;;1.10;68.30;;;;;;5005782;28;20053;-74
2022/04/03 00:39:57;;;;;;;8.63;3.85;;;1.10;68.30;;;;;;5007425;28;20724;-77
2022/04/03 00:42:23;;;;;;;7.00;3.78;;;1.10;68.50;;;;;;5007536;28;20457;-77
2022/04/03 00:44:48;;;;;;;7.18;3.47;;;1.00;68.70;;;;;;5000706;28;20038;-76
2022/04/03 00:47:16;;;;;;;7.63;3.90;;;1.00;69.10;;;;;;5007132;28;20042;-74
2022/04/03 00:49:42;;;;;;;7.32;3.17;;;0.90;69.30;;;;;;5007517;28;20034;-74
2022/04/03 00:52:08;;;;;;;7.50;3.60;;;0.90;69.50;;;;;;5008508;28;20416;-73
2022/04/03 00:54:34;;;;;;;10.02;3.92;;;0.90;69.70;;;;;;5011760;28;20365;-76
2022/04/03 00:57:03;;;;;;;7.70;3.63;;;0.80;69.90;;;;;;5010487;28;20040;-81
2022/04/03 00:59:30;;;;;;;7.75;4.18;;;0.80;70.20;;;;;;5012392;28;20380;-76
2022/04/03 01:01:55;;;;;;;7.75;3.83;;;0.80;70.50;;;;;;5000814;28;20085;-77
2022/04/03 01:04:21;;;;;;;8.68;3.90;;;0.70;70.70;;;;;;5014930;28;20026;-80
2022/04/03 01:06:47;;;;;;;10.02;3.88;;;0.70;70.80;;;;;;5011378;28;20909;-76
2022/04/03 01:09:12;;;;;;;11.38;4.60;;;0.70;70.90;;;;;;5000817;28;20771;-79
2022/04/03 01:11:38;;;;;;;8.73;4.28;;;0.70;71.00;;;;;;5019295;28;20364;-75
2022/04/03 01:14:05;;;;;;;11.90;4.70;;;0.60;71.20;;;;;;5002349;28;20050;-78
2022/04/03 01:16:32;;;;;;;10.50;5.10;;;0.70;71.20;;;;;;5009179;28;20506;-75
2022/04/03 01:18:58;;;;;;;11.00;5.07;;;0.70;71.20;;;;;;5003294;28;20037;-75
2022/04/03 01:21:24;;;;;;;9.38;5.00;;;0.60;71.20;;;;;;5001982;28;20608;-78
2022/04/03 01:23:50;;;;;;;9.20;4.78;;;0.60;71.30;;;;;;5012404;28;20064;-75
2022/04/03 01:26:16;;;;;;;9.02;4.38;;;0.60;71.50;;;;;;5002838;28;20371;-77
2022/04/03 01:28:43;;;;;;;11.52;5.35;;;0.70;71.60;;;;;;5003584;28;20131;-76
2022/04/03 01:31:09;;;;;;;8.82;4.45;;;0.60;71.60;;;;;;5026094;28;20029;-76
2022/04/03 01:33:34;;;;;;;9.98;4.97;;;0.70;71.60;;;;;;5030870;28;20392;-78
2022/04/03 01:36:00;;;;;;;8.38;4.72;;;0.70;71.70;;;;;;5002366;28;20107;-75
2022/04/03 01:38:26;;;;;;;10.93;5.20;;;0.70;71.70;;;;;;5009541;28;20108;-75
2022/04/03 01:40:51;;;;;;;9.27;4.57;;;0.70;71.70;;;;;;5006762;28;20034;-75
2022/04/03 01:43:17;;;;;;;12.10;5.00;;;0.70;71.70;;;;;;5018382;28;20040;-76
2022/04/03 01:45:43;;;;;;;9.25;4.75;;;0.70;71.60;;;;;;5012383;28;20046;-75
2022/04/03 01:48:09;;;;;;;7.85;4.35;;;0.80;71.60;;;;;;5023188;28;20715;-78
2022/04/03 01:50:35;;;;;;;8.25;4.20;;;0.80;71.50;;;;;;5027804;28;20113;-73
2022/04/03 01:53:01;;;;;;;9.98;4.28;;;0.80;71.50;;;;;;5026336;28;20052;-75
2022/04/03 01:55:27;;;;;;;9.40;4.47;;;0.80;71.60;;;;;;5031692;28;20033;-76
2022/04/03 01:57:53;;;;;;;7.70;4.05;;;0.80;71.60;;;;;;5021228;28;20154;-76
2022/04/03 02:00:20;;;;;;;7.53;3.95;;;0.80;71.60;;;;;;5033751;28;20129;-76
2022/04/03 02:02:45;;;;;;;8.85;4.63;;;0.80;71.70;;;;;;5022694;28;20487;-81
2022/04/03 02:05:12;;;;;;;8.60;4.30;;;0.90;71.70;;;;;;5026059;28;20049;-78
2022/04/03 02:07:38;;;;;;;8.70;4.22;;;0.90;71.80;;;;;;5027073;28;20037;-75
2022/04/03 02:10:09;;;;;;;8.88;4.00;;;0.90;71.80;;;;;;5021938;28;20600;-76
2022/04/03 02:12:40;;;;;;;9.32;4.03;;;0.80;71.90;;;;;;5029650;28;20056;-76
2022/04/03 02:15:08;;;;;;;8.10;4.00;;;0.80;72.00;;;;;;5029992;28;20037;-79
2022/04/03 02:17:34;;;;;;;8.70;3.97;;;0.70;72.10;;;;;;5021348;28;20045;-78
2022/04/03 02:20:00;;;;;;;10.82;5.30;;;0.70;72.10;;;;;;5034279;28;20038;-77
2022/04/03 02:22:26;;;;;;;9.38;4.78;;;0.60;72.20;;;;;;5019370;28;20048;-76
2022/04/03 02:24:51;;;;;;;9.10;4.45;;;0.60;72.40;;;;;;5019231;28;20026;-74
2022/04/03 02:27:17;;;;;;;8.15;4.20;;;0.60;72.40;;;;;;5021240;28;20317;-76
2022/04/03 02:29:43;;;;;;;8.40;4.15;;;0.60;72.40;;;;;;5015490;28;20082;-73
2022/04/03 02:32:08;;;;;;;7.70;4.32;;;0.60;72.60;;;;;;5022343;28;20102;-77
2022/04/03 02:34:34;;;;;;;9.13;4.28;;;0.50;72.80;;;;;;5020978;28;20025;-75
2022/04/03 02:36:59;;;;;;;9.07;4.43;;;0.50;73.00;;;;;;5024789;28;20457;-76
2022/04/03 02:39:25;;;;;;;8.38;4.85;;;0.40;73.30;;;;;;5022801;28;20116;-78
2022/04/03 02:41:51;;;;;;;8.77;5.20;;;0.50;73.40;;;;;;5023107;28;20037;-80
2022/04/03 02:44:17;;;;;;;9.82;5.07;;;0.60;73.30;;;;;;5004656;28;20048;-78
2022/04/03 02:46:42;;;;;;;12.82;6.95;;;0.60;73.30;;;;;;5017961;28;20904;-75
2022/04/03 02:49:08;;;;;;;12.02;7.72;;;0.60;73.40;;;;;;5025156;28;20373;-75
2022/04/03 02:51:37;;;;;;;12.57;7.28;;;0.60;73.60;;;;;;5020170;28;20052;-77
2022/04/03 02:54:02;;;;;;;11.75;7.15;;;0.60;73.80;;;;;;5001703;28;20428;-75
2022/04/03 02:56:28;;;;;;;11.55;6.63;;;0.70;73.90;;;;;;5025740;28;20053;-84
2022/04/03 02:58:54;;;;;;;13.73;8.80;;;0.70;74.00;;;;;;5004954;28;20358;-82
2022/04/03 03:01:20;;;;;;;15.70;9.50;;;0.70;74.00;;;;;;5041117;28;20090;-82
2022/04/03 03:03:45;;;;;;;14.55;8.90;;;0.70;74.10;;;;;;5045475;28;20053;-82
2022/04/03 03:06:11;;;;;;;14.70;8.93;;;0.80;74.20;;;;;;5032003;28;20029;-80
2022/04/03 03:08:37;;;;;;;15.85;9.80;;;0.80;74.20;;;;;;5023673;28;20029;-78
2022/04/03 03:11:03;;;;;;;17.33;10.82;;;0.90;74.30;;;;;;5027475;28;20029;-74
2022/04/03 03:13:29;;;;;;;18.30;11.23;;;0.90;74.30;;;;;;5031488;28;20049;-79
2022/04/03 03:15:55;;;;;;;19.85;11.80;;;1.00;74.30;;;;;;5025614;28;20392;-76
2022/04/03 03:18:21;;;;;;;20.50;11.90;;;1.00;74.00;;;;;;5030144;28;20055;-76
2022/04/03 03:20:47;;;;;;;18.48;11.55;;;1.00;74.20;;;;;;5010676;28;20038;-78
2022/04/03 03:23:13;;;;;;;20.45;13.68;;;1.00;74.20;;;;;;5020502;28;20033;-78
2022/04/03 03:25:38;;;;;;;18.13;10.90;;;0.90;74.60;;;;;;5029517;28;20376;-76
2022/04/03 03:28:05;;;;;;;18.30;10.82;;;1.00;74.60;;;;;;5009423;28;20037;-81
2022/04/03 03:30:30;;;;;;;17.77;10.95;;;1.00;74.50;;;;;;5026102;28;20057;-76
2022/04/03 03:32:56;;;;;;;16.80;11.05;;;1.10;74.40;;;;;;5029806;28;20030;-74
2022/04/03 03:35:22;;;;;;;17.20;10.65;;;1.10;74.40;;;;;;5014437;28;20415;-75
2022/04/03 03:37:47;;;;;;;17.77;10.20;;;1.20;74.40;;;;;;5033547;28;20516;-74
2022/04/03 03:40:14;;;;;;;22.20;12.32;;;1.20;74.20;;;;;;5025919;28;20397;-76
2022/04/03 03:42:41;;;;;;;19.98;11.35;;;1.20;74.30;;;;;;5021126;28;20021;-76
2022/04/03 03:45:09;;;;;;;18.88;10.85;;;1.20;74.30;;;;;;5023102;28;20511;-75
2022/04/03 03:47:35;;;;;;;19.50;11.27;;;1.20;74.30;;;;;;5007189;28;20021;-76
2022/04/03 03:50:00;;;;;;;17.77;9.93;;;1.20;74.30;;;;;;5035311;28;20465;-77
2022/04/03 03:52:26;;;;;;;16.63;10.13;;;1.20;74.20;;;;;;5032404;28;20457;-75
2022/04/03 03:54:52;;;;;;;16.02;9.68;;;1.20;74.10;;;;;;5025646;28;20041;-76
2022/04/03 03:57:18;;;;;;;14.15;9.65;;;1.20;74.20;;;;;;5010890;28;20041;-80
2022/04/03 03:59:44;;;;;;;15.07;9.32;;;1.20;74.20;;;;;;5027887;28;20551;-75
2022/04/03 04:02:10;;;;;;;14.43;8.30;;;1.30;74.30;;;;;;5005453;28;20046;-79
2022/04/03 04:04:36;;;;;;;14.98;8.82;;;1.20;74.30;;;;;;5033680;28;20029;-76
2022/04/03 04:07:02;;;;;;;15.90;9.32;;;1.30;74.40;;;;;;5030765;28;20154;-78
2022/04/03 04:09:27;;;;;;;12.85;8.75;;;1.20;74.50;;;;;;5038878;28;20044;-74
2022/04/03 04:11:53;;;;;;;14.48;8.65;;;1.30;74.50;;;;;;5007892;28;20046;-76
2022/04/03 04:14:18;;;;;;;13.27;9.10;;;1.30;74.50;;;;;;5028323;28;20033;-82
2022/04/03 04:16:46;;;;;;;15.90;8.48;;;1.30;74.50;;;;;;5007085;28;20045;-74
2022/04/03 04:19:13;;;;;;;13.50;8.63;;;1.20;74.70;;;;;;5021919;28;20057;-79
2022/04/03 04:21:39;;;;;;;14.90;8.10;;;1.10;74.80;;;;;;5021930;28;20044;-75
2022/04/03 04:24:05;;;;;;;12.90;8.07;;;1.10;75.10;;;;;;5020263;28;20128;-73
2022/04/03 04:26:30;;;;;;;13.27;7.68;;;1.10;75.40;;;;;;5001346;28;20036;-75
2022/04/03 04:28:56;;;;;;;13.55;7.70;;;1.10;75.60;;;;;;5022445;28;20493;-79
2022/04/03 04:31:22;;;;;;;13.32;7.10;;;1.00;75.80;;;;;;5021021;28;20060;-77
2022/04/03 04:33:47;;;;;;;12.77;7.57;;;0.90;76.00;;;;;;5020559;28;20436;-76
2022/04/03 04:36:13;;;;;;;11.57;7.32;;;0.90;76.10;;;;;;5035720;28;20048;-77
2022/04/03 04:38:39;;;;;;;14.93;8.23;;;0.80;76.10;;;;;;5036723;28;20106;-75
2022/04/03 04:41:04;;;;;;;11.82;7.30;;;0.70;76.30;;;;;;5014301;28;20041;-76
2022/04/03 04:43:30;;;;;;;12.30;7.10;;;0.70;76.50;;;;;;5024310;28;20033;-76
2022/04/03 04:45:56;;;;;;;12.30;7.45;;;0.60;76.70;;;;;;5021297;28;20038;-76
2022/04/03 04:48:22;;;;;;;12.02;7.20;;;0.60;76.80;;;;;;5002543;28;20029;-79
2022/04/03 04:50:49;;;;;;;12.35;7.15;;;0.60;76.90;;;;;;5023382;28;20082;-77
2022/04/03 04:53:15;;;;;;;15.02;7.30;;;0.50;77.10;;;;;;5003051;28;20194;-75
2022/04/03 04:55:41;;;;;;;11.88;7.07;;;0.40;77.30;;;;;;5020486;28;20034;-76
2022/04/03 04:58:06;;;;;;;13.65;7.18;;;0.40;77.50;;;;;;5003307;28;20033;-77
2022/04/03 05:00:32;;;;;;;11.57;7.30;;;0.40;77.80;;;;;;5024221;28;20041;-78
2022/04/03 05:02:58;;;;;;;13.57;7.65;;;0.40;77.70;;;;;;5019347;28;20092;-76
2022/04/03 05:05:26;;;;;;;14.32;7.78;;;0.30;77.80;;;;;;5011048;28;20044;-75
2022/04/03 05:07:55;;;;;;;11.68;7.78;;;0.20;78.00;;;;;;5021854;28;20029;-78
2022/04/03 05:10:23;;;;;;;11.75;7.38;;;0.30;78.10;;;;;;5026393;28;20591;-75
2022/04/03 05:12:49;;;;;;;14.57;7.68;;;0.20;78.20;;;;;;5020295;28;20069;-81
2022/04/03 05:15:15;;;;;;;13.00;7.70;;;0.20;78.20;;;;;;5026979;28;20488;-75
2022/04/03 05:17:42;;;;;;;14.23;7.43;;;0.20;78.20;;;;;;5024456;28;20405;-76
2022/04/03 05:20:09;;;;;;;13.15;7.60;;;0.20;78.20;;;;;;5021325;28;20041;-77
2022/04/03 05:22:35;;;;;;;14.43;8.15;;;0.20;78.30;;;;;;4990536;28;20106;-76
2022/04/03 05:25:04;;;;;;;11.60;7.13;;;0.20;78.30;;;;;;5019224;28;20041;-80
2022/04/03 05:27:31;;;;;;;12.45;8.20;;;0.10;78.40;;;;;;5023613;28;20044;-75
2022/04/03 05:29:56;;;;;;;12.95;7.78;;;0.20;78.50;;;;;;5002058;28;20405;-77
2022/04/03 05:32:26;;;;;;;13.23;8.02;;;0.10;78.50;;;;;;5025145;28;20033;-79
2022/04/03 05:34:53;;;;;;;14.70;8.95;;;0.10;78.40;;;;;;5026235;28;20045;-79
2022/04/03 05:37:19;;;;;;;14.60;8.10;;;0.10;78.40;;;;;;5020782;28;20049;-81
2022/04/03 05:39:45;;;;;;;15.18;8.05;;;0.10;78.50;;;;;;5031450;28;20030;-75
2022/04/03 05:42:12;;;;;;;15.27;9.10;;;0.20;78.50;;;;;;5018848;28;20034;-76
2022/04/03 05:44:37;;;;;;;13.68;8.35;;;0.20;78.40;;;;;;5009333;28;20048;-80
2022/04/03 05:47:03;;;;;;;14.65;8.20;;;0.20;78.50;;;;;;5020295;28;20037;-76
2022/04/03 05:49:29;;;;;;;14.23;8.50;;;0.20;78.50;;;;;;5017513;28;20041;-76
2022/04/03 05:51:54;;;;;;;15.93;9.43;;;0.20;78.30;;;;;;5019723;28;20401;-77
2022/04/03 05:54:20;;;;;;;15.75;8.05;;;0.20;78.20;;;;;;5031715;28;20175;-77
2022/04/03 05:56:46;;;;;;;13.40;9.20;;;0.30;78.20;;;;;;5018926;28;20042;-77
2022/04/03 05:59:12;;;;;;;14.68;10.13;;;0.30;78.20;;;;;;5019737;28;20371;-79
2022/04/03 06:01:38;;;;;;;14.80;9.18;;;0.40;77.90;;;;;;5022248;28;20571;-78
2022/04/03 06:04:04;;;;;;;14.82;9.15;;;0.40;77.60;;;;;;5026394;28;20474;-77
2022/04/03 06:06:29;;;;;;;16.35;9.40;;;0.50;77.50;;;;;;5019295;28;20127;-75
2022/04/03 06:08:55;;;;;;;15.63;9.13;;;0.60;77.40;;;;;;5021870;28;20122;-77
2022/04/03 06:11:21;;;;;;;16.35;9.13;;;0.60;77.40;;;;;;5030890;28;20056;-81
2022/04/03 06:13:46;;;;;;;14.32;8.77;;;0.80;77.40;;;;;;5015579;28;20052;-77
2022/04/03 06:16:12;;;;;;;15.68;10.05;;;0.90;77.60;;;;;;5021725;28;20030;-78
2022/04/03 06:18:37;;;;;;;14.82;10.60;;;1.00;77.50;;;;;;5019733;28;20543;-80
2022/04/03 06:21:03;;;;;;;19.13;12.02;;;1.10;77.50;;;;;;5031187;28;20037;-75
2022/04/03 06:23:29;;;;;;;21.63;14.43;;;1.20;77.40;;;;;;5018049;28;20480;-83
2022/04/03 06:25:57;;;;;;;29.35;18.65;;;1.30;77.30;;;;;;5018962;28;20034;-76
2022/04/03 06:28:23;;;;;;;24.52;15.57;;;1.40;77.20;;;;;;5020780;28;20488;-76
2022/04/03 06:30:48;;;;;;;23.92;15.75;;;1.50;77.20;;;;;;5027720;28;20057;-77
2022/04/03 06:33:16;;;;;;;28.38;17.38;;;1.60;77.00;;;;;;5006312;28;20033;-76
2022/04/03 06:35:43;;;;;;;24.60;15.85;;;1.70;77.00;;;;;;5016925;28;20784;-76
2022/04/03 06:38:08;;;;;;;20.77;14.13;;;1.90;76.60;;;;;;5013616;28;20041;-75
2022/04/03 06:40:35;;;;;;;19.75;13.15;;;2.00;76.50;;;;;;5003794;28;20041;-75
2022/04/03 06:43:01;;;;;;;23.92;13.20;;;2.00;76.20;;;;;;4997292;28;20041;-77
2022/04/03 06:45:28;;;;;;;19.05;12.25;;;2.10;76.20;;;;;;5015865;28;20835;-73
2022/04/03 06:47:56;;;;;;;15.93;11.30;;;2.10;76.00;;;;;;5023939;28;20447;-75
2022/04/03 06:50:22;;;;;;;17.83;11.57;;;2.10;76.20;;;;;;5029581;28;20025;-80
2022/04/03 06:52:48;;;;;;;24.90;17.05;;;2.20;76.20;;;;;;5024639;28;20091;-77
2022/04/03 06:55:14;;;;;;;19.27;12.95;;;2.30;76.00;;;;;;5030663;28;20064;-78
2022/04/03 06:57:39;;;;;;;17.92;11.52;;;2.30;75.90;;;;;;5014589;28;20037;-76
2022/04/03 07:00:08;;;;;;;18.17;11.27;;;2.50;75.30;;;;;;5030783;28;20556;-80
2022/04/03 07:02:34;;;;;;;18.42;11.68;;;2.60;74.90;;;;;;5019127;28;20267;-74
2022/04/03 07:05:00;;;;;;;18.38;11.68;;;2.80;74.40;;;;;;5009898;28;20408;-75
2022/04/03 07:07:26;;;;;;;18.40;12.73;;;2.90;74.30;;;;;;5016917;28;20037;-77
2022/04/03 07:09:53;;;;;;;19.48;12.48;;;3.10;73.30;;;;;;5013783;28;20033;-81
2022/04/03 07:12:19;;;;;;;20.70;14.55;;;3.10;72.90;;;;;;5017869;28;20063;-75
2022/04/03 07:14:45;;;;;;;23.10;13.63;;;3.30;72.90;;;;;;5011962;28;20049;-76
2022/04/03 07:17:11;;;;;;;26.83;14.45;;;3.50;72.30;;;;;;5000932;28;20041;-77
2022/04/03 07:19:37;;;;;;;23.63;14.48;;;3.60;71.80;;;;;;5009550;28;20349;-76
2022/04/03 07:22:03;;;;;;;29.58;15.18;;;3.70;71.50;;;;;;5008999;28;20034;-75
2022/04/03 07:24:29;;;;;;;19.40;12.48;;;3.80;70.40;;;;;;4999538;28;20034;-77
2022/04/03 07:26:55;;;;;;;15.13;8.77;;;3.90;70.60;;;;;;5015099;28;20148;-74
2022/04/03 07:29:22;;;;;;;12.55;7.30;;;4.10;70.00;;;;;;5003663;28;20857;-74
2022/04/03 07:31:48;;;;;;;11.55;7.85;;;4.20;69.30;;;;;;5019039;28;20059;-82
2022/04/03 07:34:14;;;;;;;12.40;7.65;;;4.30;69.20;;;;;;5022427;28;20061;-79
2022/04/03 07:36:40;;;;;;;13.98;6.65;;;4.50;69.10;;;;;;5039916;28;20092;-75
2022/04/03 07:39:05;;;;;;;11.30;6.22;;;4.70;68.50;;;;;;5032137;28;20041;-76
2022/04/03 07:41:31;;;;;;;10.50;6.47;;;4.90;67.50;;;;;;5014349;28;20550;-76
2022/04/03 07:43:57;;;;;;;9.02;5.05;;;5.00;67.50;;;;;;4998079;28;20116;-75
2022/04/03 07:46:22;;;;;;;8.32;5.63;;;5.20;66.70;;;;;;5005205;28;20178;-76
2022/04/03 07:48:48;;;;;;;7.70;5.28;;;5.20;65.90;;;;;;5010400;28;20068;-77
2022/04/03 07:51:14;;;;;;;7.90;4.30;;;5.30;65.90;;;;;;5016217;28;20040;-77
2022/04/03 07:53:39;;;;;;;11.90;5.07;;;5.50;66.10;;;;;;5017412;28;20211;-77
2022/04/03 07:56:06;;;;;;;10.40;4.90;;;5.60;65.50;;;;;;5019686;28;20044;-76
2022/04/03 07:58:33;;;;;;;10.70;5.18;;;5.80;65.90;;;;;;5028449;28;20033;-76
2022/04/03 08:00:58;;;;;;;10.43;4.93;;;5.90;64.80;;;;;;5026737;28;20080;-77
2022/04/03 08:03:25;;;;;;;10.48;5.03;;;5.90;64.90;;;;;;5021284;28;20065;-77
2022/04/03 08:05:51;;;;;;;8.40;4.78;;;5.90;64.90;;;;;;5012459;28;20045;-75
2022/04/03 08:08:16;;;;;;;9.30;5.60;;;6.10;64.80;;;;;;5004576;28;20038;-77
2022/04/03 08:10:42;;;;;;;8.15;5.05;;;6.30;64.90;;;;;;5010464;28;20056;-75
2022/04/03 08:13:08;;;;;;;10.95;5.30;;;6.40;63.90;;;;;;5006023;28;20030;-76
2022/04/03 08:15:34;;;;;;;8.85;5.18;;;6.50;64.70;;;;;;5011764;28;20029;-75
2022/04/03 08:17:59;;;;;;;16.25;5.15;;;6.80;63.20;;;;;;5006682;28;20057;-77
2022/04/03 08:20:25;;;;;;;7.97;5.30;;;6.90;63.60;;;;;;5002918;28;20040;-75
2022/04/03 08:22:51;;;;;;;6.72;4.40;;;7.10;63.40;;;;;;5015060;28;20396;-76
2022/04/03 08:25:17;;;;;;;8.20;4.10;;;7.10;63.10;;;;;;5007154;28;20447;-75
2022/04/03 08:27:49;;;;;;;10.20;4.50;;;7.20;62.80;;;;;;5009791;28;20330;-76
2022/04/03 08:30:22;;;;;;;6.97;4.15;;;7.00;62.40;;;;;;5013262;28;20044;-76
2022/04/03 08:32:48;;;;;;;9.20;3.88;;;7.10;62.80;;;;;;5010885;28;20155;-76
2022/04/03 08:35:14;;;;;;;5.63;3.10;;;7.20;62.00;;;;;;5010134;28;20038;-75
2022/04/03 08:37:40;;;;;;;6.82;3.72;;;7.40;61.20;;;;;;5009914;28;20061;-76
2022/04/03 08:40:08;;;;;;;6.90;3.80;;;7.60;61.30;;;;;;5012229;28;20705;-77
2022/04/03 08:42:35;;;;;;;6.38;3.78;;;7.70;60.60;;;;;;5010390;28;20547;-75
2022/04/03 08:45:00;;;;;;;7.53;3.85;;;7.70;60.90;;;;;;5016216;28;20121;-75
2022/04/03 08:47:28;;;;;;;8.38;3.88;;;7.90;60.70;;;;;;5013050;28;20932;-76
2022/04/03 08:50:00;;;;;;;6.22;3.80;;;8.10;59.70;;;;;;4996384;28;20535;-75
2022/04/03 08:52:27;;;;;;;7.25;3.50;;;7.90;60.40;;;;;;4996125;28;20034;-76
2022/04/03 08:54:53;;;;;;;6.78;3.40;;;7.70;57.60;;;;;;4997380;28;20068;-75
2022/04/03 08:57:19;;;;;;;4.90;2.78;;;7.70;56.30;;;;;;5011650;28;20053;-76
2022/04/03 08:59:45;;;;;;;4.93;2.70;;;7.80;56.40;;;;;;4996547;28;20128;-74
2022/04/03 09:02:14;;;;;;;5.53;2.78;;;7.70;55.90;;;;;;4997969;28;20389;-75
2022/04/03 09:04:39;;;;;;;7.60;2.75;;;7.90;55.10;;;;;;5007771;28;20034;-75
2022/04/03 09:07:05;;;;;;;5.43;2.67;;;8.20;54.50;;;;;;5005566;28;20115;-75
2022/04/03 09:09:31;;;;;;;6.05;2.70;;;8.60;53.80;;;;;;5013151;28;20034;-75
2022/04/03 09:12:26;;;;;;;6.60;2.90;;;8.70;53.70;;;;;;4997301;28;20032;-74
2022/04/03 09:14:54;;;;;;;6.22;2.75;;;8.90;52.40;;;;;;4981909;28;20044;-74
2022/04/03 09:17:45;;;;;;;5.10;2.53;;;8.50;50.40;;;;;;5006000;28;20108;-75
2022/04/03 09:20:12;;;;;;;5.43;2.72;;;8.60;52.60;;;;;;5012920;28;20144;-76
2022/04/03 09:22:41;;;;;;;5.63;2.70;;;8.60;53.30;;;;;;5025155;28;20124;-77
2022/04/03 09:25:12;;;;;;;5.22;2.30;;;8.80;52.60;;;;;;5022679;28;20038;-74
2022/04/03 09:28:04;;;;;;;5.90;2.40;;;9.00;50.90;;;;;;5012374;28;20446;-75
2022/04/03 09:30:38;;;;;;;5.97;2.25;;;8.60;48.80;;;;;;5010280;28;20053;-76
2022/04/03 09:33:08;;;;;;;8.55;2.90;;;8.60;49.10;;;;;;5011098;28;20088;-74
2022/04/03 09:35:57;;;;;;;4.40;2.30;;;8.60;49.00;;;;;;5017869;28;20033;-75
2022/04/03 09:38:23;;;;;;;5.82;2.10;;;8.60;49.70;;;;;;5008184;28;20045;-75
2022/04/03 09:40:51;;;;;;;5.22;2.40;;;8.20;50.50;;;;;;5014353;28;20087;-75
2022/04/03 09:43:38;;;;;;;4.82;2.53;;;8.30;51.50;;;;;;4997816;28;20052;-75
2022/04/03 09:46:11;;;;;;;6.35;2.72;;;8.30;49.90;;;;;;5005301;28;20034;-75
2022/04/03 09:48:41;;;;;;;4.55;2.08;;;8.50;50.60;;;;;;5011317;28;20022;-76
2022/04/03 09:51:11;;;;;;;5.35;2.40;;;8.80;50.40;;;;;;5008819;28;20111;-75
2022/04/03 09:53:53;;;;;;;6.80;2.42;;;9.20;49.70;;;;;;5011125;28;20069;-77
2022/04/03 09:56:23;;;;;;;6.38;2.17;;;9.80;48.30;;;;;;5009835;28;20014;-75
2022/04/03 09:58:51;;;;;;;3.40;2.28;;;10.00;48.80;;;;;;5008345;28;20041;-78
2022/04/03 10:01:38;;;;;;;4.47;2.33;;;9.60;49.70;;;;;;4995328;28;20040;-75
2022/04/03 10:04:06;;;;;;;5.35;2.63;;;9.30;48.50;;;;;;4990377;28;20053;-75
2022/04/03 10:06:32;;;;;;;4.47;2.40;;;9.00;50.10;;;;;;5007842;28;20057;-76
2022/04/03 10:08:59;;;;;;;7.00;2.22;;;9.10;49.40;;;;;;4999287;28;20469;-75
2022/04/03 10:11:25;;;;;;;10.82;2.85;;;9.10;48.20;;;;;;5009601;28;20122;-75
2022/04/03 10:13:51;;;;;;;4.05;2.30;;;9.40;49.20;;;;;;5009656;28;20033;-75
2022/04/03 10:16:18;;;;;;;4.45;2.17;;;9.70;48.40;;;;;;5007853;28;20041;-75
2022/04/03 10:18:45;;;;;;;4.55;2.17;;;10.60;47.30;;;;;;5006659;28;20077;-77
2022/04/03 10:21:17;;;;;;;4.22;2.05;;;11.20;46.50;;;;;;5009365;28;20399;-74
2022/04/03 10:23:45;;;;;;;3.65;2.13;;;11.70;44.40;;;;;;5004625;28;20045;-76
2022/04/03 10:26:15;;;;;;;5.10;2.65;;;11.70;44.90;;;;;;5007770;28;20066;-75
2022/04/03 10:28:48;;;;;;;5.03;2.50;;;11.10;43.30;;;;;;5001671;28;20041;-75
2022/04/03 10:31:16;;;;;;;5.88;2.90;;;10.70;45.20;;;;;;5006379;28;20444;-74
2022/04/03 10:33:47;;;;;;;5.07;3.17;;;10.30;46.20;;;;;;4996167;28;20056;-75
2022/04/03 10:36:15;;;;;;;4.88;3.10;;;9.50;47.90;;;;;;5005572;28;20037;-75
2022/04/03 10:38:56;;;;;;;6.07;2.65;;;9.10;49.70;;;;;;5006964;28;20069;-73
2022/04/03 10:41:41;;;;;;;5.88;2.78;;;8.70;50.30;;;;;;5006818;28;20038;-76
2022/04/03 10:44:13;;;;;;;11.38;4.03;;;8.50;50.50;;;;;;5012312;28;20032;-73
2022/04/03 10:47:04;;;;;;;7.35;3.33;;;8.40;51.00;;;;;;5008627;28;20041;-74
2022/04/03 10:49:30;;;;;;;6.88;3.00;;;8.40;50.80;;;;;;5001109;28;20030;-74
2022/04/03 10:52:01;;;;;;;5.65;2.90;;;8.40;51.70;;;;;;5008430;28;20080;-75
2022/04/03 10:54:31;;;;;;;9.43;3.65;;;8.40;51.70;;;;;;4995387;28;20101;-75
2022/04/03 10:57:34;;;;;;;6.18;2.75;;;8.60;51.70;;;;;;5006847;28;20125;-75
2022/04/03 11:00:15;;;;;;;6.65;3.03;;;8.50;52.00;;;;;;5010744;28;20042;-74
2022/04/03 11:02:43;;;;;;;5.70;3.00;;;8.60;52.00;;;;;;5015668;28;20033;-75
2022/04/03 11:05:26;;;;;;;4.78;2.83;;;8.60;52.50;;;;;;5005870;28;20086;-74
2022/04/03 11:08:02;;;;;;;5.15;2.90;;;8.40;52.00;;;;;;5002084;28;20503;-75
2022/04/03 11:10:45;;;;;;;4.82;2.45;;;8.50;52.20;;;;;;5006219;28;20044;-75
2022/04/03 11:13:13;;;;;;;6.38;3.28;;;8.50;52.00;;;;;;5006445;28;20030;-75
2022/04/03 11:15:51;;;;;;;6.32;3.63;;;8.60;52.20;;;;;;5012382;28;20076;-74
2022/04/03 11:18:33;;;;;;;8.18;3.17;;;8.70;52.10;;;;;;5016629;28;20053;-75
2022/04/03 11:21:28;;;;;;;5.00;2.38;;;8.70;52.40;;;;;;4990214;28;20485;-74
2022/04/03 11:24:14;;;;;;;5.70;2.57;;;8.60;50.70;;;;;;5013569;28;20683;-75
2022/04/03 11:26:40;;;;;;;5.10;2.95;;;8.70;51.30;;;;;;5007717;28;20057;-74
2022/04/03 11:29:09;;;;;;;7.60;2.97;;;9.20;50.70;;;;;;4952574;28;1379947;-76
2022/04/03 11:31:36;;;;;;;4.57;2.47;;;9.70;50.70;;;;;;5016475;28;20491;-74
2022/04/03 11:34:02;;;;;;;6.32;2.58;;;10.30;47.70;;;;;;5024510;28;20041;-78
2022/04/03 11:36:30;;;;;;;8.63;2.33;;;10.40;47.60;;;;;;5019952;28;20080;-77
2022/04/03 11:38:57;;;;;;;5.60;2.60;;;10.60;47.50;;;;;;5019697;28;20045;-77
2022/04/03 11:41:34;;;;;;;2.72;2.05;;;10.40;46.50;;;;;;5008722;28;20089;-75
2022/04/03 11:44:02;;;;;;;7.90;2.78;;;10.50;46.40;;;;;;5004908;28;20383;-78
2022/04/03 11:46:34;;;;;;;4.05;2.40;;;10.60;45.80;;;;;;5018309;28;20033;-76
2022/04/03 11:49:00;;;;;;;6.10;3.10;;;10.70;46.60;;;;;;5014501;28;20365;-76
2022/04/03 11:51:26;;;;;;;6.15;2.92;;;11.00;46.20;;;;;;5017048;28;20527;-76
2022/04/03 11:54:00;;;;;;;6.97;2.70;;;10.80;45.30;;;;;;5012827;28;20707;-76
2022/04/03 11:56:29;;;;;;;5.22;2.25;;;10.60;46.20;;;;;;5001462;28;20521;-75
2022/04/03 11:58:56;;;;;;;8.68;3.08;;;10.20;46.10;;;;;;5028017;28;20037;-76
2022/04/03 12:01:38;;;;;;;8.15;3.10;;;10.10;47.00;;;;;;5022477;28;21668;-76
2022/04/03 12:04:13;;;;;;;8.02;3.05;;;9.90;47.00;;;;;;5017326;28;20041;-76
2022/04/03 12:06:42;;;;;;;;;;;9.70;49.30;;;;;;5031578;28;20492;-78
2022/04/03 12:09:13;;;;;;;5.05;2.58;;;9.50;50.20;;;;;;5019100;28;19917;-74
2022/04/03 12:11:47;;;;;;;7.28;2.45;;;9.50;50.80;;;;;;5014276;28;20033;-76
2022/04/03 12:14:34;;;;;;;;;;;9.30;50.70;;;;;;5025015;28;20076;-75
2022/04/03 12:17:02;;;;;;;5.65;2.90;;;9.40;50.40;;;;;;5043053;28;19913;-75
2022/04/03 12:19:30;;;;;;;3.90;2.30;;;9.50;49.30;;;;;;5043114;28;20593;-74
2022/04/03 12:22:00;;;;;;;4.93;2.00;;;9.60;48.70;;;;;;5034015;28;20037;-75
2022/04/03 12:24:30;;;;;;;4.05;2.28;;;10.10;48.50;;;;;;5009070;28;20396;-76
2022/04/03 12:27:15;;;;;;;4.32;1.98;;;10.60;47.90;;;;;;5021543;28;20635;-75
2022/04/03 12:29:41;;;;;;;;;;;10.50;44.00;;;;;;5000379;28;20046;-74
2022/04/03 12:32:12;;;;;;;4.40;1.85;;;10.00;44.40;;;;;;5021362;28;19929;-75
2022/04/03 12:34:40;;;;;;;8.50;3.25;;;9.80;46.70;;;;;;5021861;28;20041;-75
2022/04/03 12:37:08;;;;;;;4.05;1.92;;;9.70;46.90;;;;;;5014713;28;20096;-76
2022/04/03 12:39:49;;;;;;;8.73;3.83;;;9.60;46.70;;;;;;5010624;28;20071;-74
2022/04/03 12:42:18;;;;;;;3.70;1.92;;;9.50;47.50;;;;;;5006544;28;20140;-74
2022/04/03 12:45:03;;;;;;;4.45;2.13;;;9.20;47.90;;;;;;5011193;28;20052;-78
2022/04/03 12:47:34;;;;;;;4.00;1.80;;;9.20;48.50;;;;;;5015160;28;20038;-78
2022/04/03 12:50:03;;;;;;;5.00;1.90;;;8.80;49.10;;;;;;5008670;28;20037;-76
2022/04/03 12:52:47;;;;;;;4.25;2.13;;;8.90;50.20;;;;;;5007212;28;20050;-76
2022/04/03 12:55:25;;;;;;;5.88;2.50;;;9.10;50.30;;;;;;5007599;28;20045;-76